Aeroporto :







RITROVATECI SU...

 
LOGIN :

Iscrizione | Disclaimer

   EN    FR    IT 

 









Sommario :    VFR   VFR Marginale   IFR   IFR Intensivo   IFR Molto Intensivo
Visibilità : 
Base nubi : 
>= 8 km
>= 3000ft
5 / 8 km
1000 / 3000 ft
1500m / 5 km
500 / 1000 ft
800 / 1500m
200 / 500 ft
< 800m
< 200 ft
Simboli :   Temporali  Nebbia  Neve Forte  Precipitazioni Forti  Vento > 20 kt






- Altitudine del aeroporto : 654 ft


KAQW - Harriman and West

ULTIMO METAR :
  • 150942Z AUTO 00000KT 1/4SM FG VV002 14/13 A3007 RMK AO2 T01390133

METARs OBSOLETI :
  • 150936Z AUTO 00000KT 1SM BR OVC001 14/13 A3006 RMK AO2 VIS 1/4V5 T01390133
  • 150917Z AUTO 00000KT 2 1/2SM BR OVC002 14/13 A3006 RMK AO2 T01390133
  • 150902Z AUTO 00000KT 1/4SM FG VV002 14/13 A3005 RMK AO2 T01390133
  • 150839Z AUTO 00000KT 5SM BR BKN003 BKN075 14/13 A3006 RMK AO2 T01440133
  • 150752Z AUTO 00000KT 5SM BR SCT075 14/13 A3005 RMK AO2 SLP174 T01440133
  • 150652Z AUTO 00000KT 9SM SCT003 14/14 A3005 RMK AO2 SLP174 T01440139

TAF N/A
FIR KZBW / America del Nord



MetMap, La meteo Aeronautica in un colpo d'occhio ! - Copyright ORBIFLY Dicembre 2007 - Disclaimer

ORBIFLY MET'MAP TEAM :

Programmazione e sviluppo : Alexandra Zaïnal
Concezione : Baudouin d'Aumeries
Aiuto per la programmazione : Marc-Olivier Méhu
Supporto tecnico e logistico : Manuel Goepfert
Aiuto per la traduzione : Arnaldo La Scala

Contatto : metmap@orbifly.com




FONTI E CREDITI :

   NOAA